Time;durP1;ratioP1;P1;durP2;ratioP2;P2;SDS_P1;SDS_P2;PMS_P1;PMS_P2;Temp;Humidity;BMP_temperature;BMP_pressure;BME280_temperature;BME280_humidity;BME280_pressure;Samples;Min_cycle;Max_cycle;Signal;HPM_P1;HPM_P2
2023/04/14 00:00:42;;;;;;;14.23;6.07;;;;;;;;;;5053215;28;20029;-73
2023/04/14 00:03:08;;;;;;;13.50;6.30;;;;;;;;;;5063465;28;20028;-74
2023/04/14 00:05:35;;;;;;;13.45;6.28;;;;;;;;;;5054200;28;20053;-73
2023/04/14 00:08:01;;;;;;;15.75;6.90;;;;;;;;;;5052170;28;20113;-73
2023/04/14 00:10:27;;;;;;;14.75;6.93;;;;;;;;;;5052267;28;20025;-73
2023/04/14 00:12:56;;;;;;;11.18;7.07;;;;;;;;;;5051869;28;20032;-73
2023/04/14 00:15:22;;;;;;;15.10;7.60;;;;;;;;;;5052820;28;20024;-73
2023/04/14 00:17:48;;;;;;;11.20;6.43;;;;;;;;;;5053058;28;20036;-73
2023/04/14 00:20:14;;;;;;;12.20;7.10;;;;;;;;;;5052956;28;20033;-73
2023/04/14 00:22:40;;;;;;;13.52;7.20;;;;;;;;;;5052672;28;20036;-73
2023/04/14 00:25:07;;;;;;;15.40;7.57;;;;;;;;;;5052651;28;20071;-72
2023/04/14 00:27:33;;;;;;;12.77;6.93;;;;;;;;;;5052188;28;20029;-71
2023/04/14 00:29:59;;;;;;;12.82;6.85;;;;;;;;;;5052250;28;20017;-72
2023/04/14 00:32:24;;;;;;;11.90;6.78;;;;;;;;;;5051970;28;20021;-72
2023/04/14 00:34:50;;;;;;;11.77;7.00;;;;;;;;;;5052670;28;20485;-74
2023/04/14 00:37:17;;;;;;;13.20;7.38;;;;;;;;;;5052016;28;20104;-73
2023/04/14 00:39:43;;;;;;;16.38;7.15;;;;;;;;;;5052244;28;20025;-73
2023/04/14 00:42:09;;;;;;;16.40;7.88;;;;;;;;;;5052056;28;20040;-72
2023/04/14 00:44:34;;;;;;;12.90;7.00;;;;;;;;;;5051953;28;20398;-72
2023/04/14 00:47:01;;;;;;;14.25;7.30;;;;;;;;;;5051646;28;20033;-73
2023/04/14 00:49:28;;;;;;;15.18;7.53;;;;;;;;;;5051480;28;20059;-72
2023/04/14 00:51:55;;;;;;;11.35;6.35;;;;;;;;;;5051306;28;20025;-72
2023/04/14 00:54:22;;;;;;;11.63;7.13;;;;;;;;;;5051441;28;20017;-73
2023/04/14 00:56:49;;;;;;;12.90;7.35;;;;;;;;;;5051277;28;20112;-73
2023/04/14 00:59:16;;;;;;;17.30;6.97;;;;;;;;;;5051535;28;20023;-73
2023/04/14 01:01:42;;;;;;;13.10;6.85;;;;;;;;;;5051467;28;20040;-72
2023/04/14 01:04:08;;;;;;;15.02;7.78;;;;;;;;;;5052297;28;20095;-73
2023/04/14 01:06:35;;;;;;;12.95;7.55;;;;;;;;;;5054451;28;20592;-73
2023/04/14 01:09:01;;;;;;;11.68;6.85;;;;;;;;;;5055813;28;20539;-73
2023/04/14 01:11:31;;;;;;;15.48;7.20;;;;;;;;;;5054294;28;20430;-73
2023/04/14 01:14:20;;;;;;;11.23;6.90;;;;;;;;;;5055817;28;20083;-72
2023/04/14 01:16:49;;;;;;;11.55;6.75;;;;;;;;;;5043034;28;20094;-72
2023/04/14 01:19:21;;;;;;;12.73;6.95;;;;;;;;;;5055453;28;20021;-72
2023/04/14 01:21:49;;;;;;;13.52;6.78;;;;;;;;;;5054261;28;20037;-73
2023/04/14 01:24:15;;;;;;;14.32;6.93;;;;;;;;;;5052246;28;20127;-73
2023/04/14 01:26:42;;;;;;;13.35;7.22;;;;;;;;;;5050928;28;20469;-73
2023/04/14 01:29:11;;;;;;;11.43;7.07;;;;;;;;;;5050897;28;20360;-73
2023/04/14 01:31:39;;;;;;;12.27;7.32;;;;;;;;;;5050962;28;20056;-73
2023/04/14 01:34:24;;;;;;;11.60;7.18;;;;;;;;;;5050892;28;20067;-73
2023/04/14 01:36:53;;;;;;;11.88;6.78;;;;;;;;;;5050931;28;20017;-74
2023/04/14 01:39:21;;;;;;;13.65;7.75;;;;;;;;;;5050656;28;20017;-74
2023/04/14 01:41:49;;;;;;;13.65;7.45;;;;;;;;;;5050513;28;20033;-71
2023/04/14 01:44:16;;;;;;;12.00;7.00;;;;;;;;;;5051294;28;20032;-72
2023/04/14 01:46:43;;;;;;;15.35;8.43;;;;;;;;;;5050532;28;20040;-73
2023/04/14 01:49:09;;;;;;;14.75;7.57;;;;;;;;;;5050530;28;20033;-72
2023/04/14 01:51:36;;;;;;;11.70;7.50;;;;;;;;;;5050849;28;20025;-73
2023/04/14 01:54:03;;;;;;;13.20;7.65;;;;;;;;;;5049522;28;20047;-71
2023/04/14 01:56:29;;;;;;;11.98;7.15;;;;;;;;;;5069972;28;20039;-73
2023/04/14 01:58:56;;;;;;;10.90;6.75;;;;;;;;;;5072454;28;20021;-73
2023/04/14 02:01:24;;;;;;;14.73;7.70;;;;;;;;;;5071498;28;20029;-73
2023/04/14 02:03:50;;;;;;;13.15;7.05;;;;;;;;;;5054855;28;20028;-73
2023/04/14 02:06:16;;;;;;;12.65;7.50;;;;;;;;;;5084579;28;20063;-73
2023/04/14 02:08:43;;;;;;;13.57;7.25;;;;;;;;;;5077210;28;20039;-73
2023/04/14 02:11:12;;;;;;;12.70;7.93;;;;;;;;;;5071396;28;20291;-73
2023/04/14 02:13:39;;;;;;;10.43;6.97;;;;;;;;;;5071676;28;20028;-74
2023/04/14 02:16:08;;;;;;;11.55;7.60;;;;;;;;;;5072006;28;20021;-74
2023/04/14 02:18:35;;;;;;;11.35;7.43;;;;;;;;;;5071636;28;20045;-72
2023/04/14 02:21:03;;;;;;;13.45;8.25;;;;;;;;;;5070702;28;20077;-71
2023/04/14 02:23:29;;;;;;;12.27;7.97;;;;;;;;;;5070059;28;20549;-73
2023/04/14 02:25:56;;;;;;;13.80;7.82;;;;;;;;;;5071426;28;20099;-73
2023/04/14 02:28:26;;;;;;;13.18;7.63;;;;;;;;;;5053331;28;20052;-73
2023/04/14 02:30:53;;;;;;;13.93;8.00;;;;;;;;;;5053176;28;20086;-73
2023/04/14 02:33:21;;;;;;;12.23;7.85;;;;;;;;;;5071129;28;20107;-73
2023/04/14 02:36:06;;;;;;;15.68;8.18;;;;;;;;;;5076547;28;20390;-72
2023/04/14 02:38:34;;;;;;;12.60;7.90;;;;;;;;;;5074079;28;20032;-73
2023/04/14 02:41:03;;;;;;;11.57;7.90;;;;;;;;;;5074216;28;20483;-71
2023/04/14 02:43:31;;;;;;;11.23;7.57;;;;;;;;;;5073916;28;20040;-72
2023/04/14 02:45:58;;;;;;;15.88;7.68;;;;;;;;;;5074043;28;20036;-72
2023/04/14 02:48:26;;;;;;;12.70;7.68;;;;;;;;;;5073813;28;20408;-72
2023/04/14 02:50:53;;;;;;;12.90;7.22;;;;;;;;;;5073968;28;20028;-72
2023/04/14 02:53:21;;;;;;;14.48;7.68;;;;;;;;;;5074260;28;20029;-73
2023/04/14 02:55:48;;;;;;;13.93;7.85;;;;;;;;;;5074304;28;20021;-73
2023/04/14 02:58:15;;;;;;;20.48;8.18;;;;;;;;;;5076718;28;20112;-73
2023/04/14 03:00:41;;;;;;;17.58;8.90;;;;;;;;;;5061656;28;20036;-73
2023/04/14 03:03:07;;;;;;;12.65;8.13;;;;;;;;;;5055632;28;20032;-72
2023/04/14 03:05:34;;;;;;;17.90;10.02;;;;;;;;;;5074283;28;20028;-72
2023/04/14 03:08:01;;;;;;;16.08;9.65;;;;;;;;;;5073462;28;20390;-72
2023/04/14 03:10:27;;;;;;;19.85;10.10;;;;;;;;;;5073445;28;20028;-72
2023/04/14 03:12:54;;;;;;;18.25;10.68;;;;;;;;;;5073139;28;20028;-71
2023/04/14 03:15:20;;;;;;;16.98;10.65;;;;;;;;;;5073664;28;20077;-73
2023/04/14 03:17:52;;;;;;;22.40;10.88;;;;;;;;;;5073512;28;20047;-72
2023/04/14 03:20:20;;;;;;;18.88;11.27;;;;;;;;;;5073270;28;20599;-72
2023/04/14 03:22:48;;;;;;;18.73;10.23;;;;;;;;;;5073110;28;20504;-72
2023/04/14 03:25:14;;;;;;;23.48;12.27;;;;;;;;;;5073332;28;20109;-72
2023/04/14 03:27:41;;;;;;;18.15;10.70;;;;;;;;;;5073132;28;20044;-72
2023/04/14 03:30:09;;;;;;;25.15;12.02;;;;;;;;;;5073051;28;20568;-72
2023/04/14 03:32:40;;;;;;;17.30;10.57;;;;;;;;;;5072702;28;20102;-72
2023/04/14 03:35:08;;;;;;;17.65;10.60;;;;;;;;;;5073084;28;20016;-72
2023/04/14 03:37:36;;;;;;;17.48;9.93;;;;;;;;;;5073802;28;20030;-72
2023/04/14 03:40:04;;;;;;;22.58;10.63;;;;;;;;;;5073612;28;20028;-71
2023/04/14 03:42:31;;;;;;;21.63;11.25;;;;;;;;;;5072440;28;20021;-72
2023/04/14 03:44:59;;;;;;;19.95;10.80;;;;;;;;;;5073239;28;20032;-72
2023/04/14 03:47:29;;;;;;;23.23;11.18;;;;;;;;;;5072966;28;20024;-73
2023/04/14 03:49:58;;;;;;;17.45;10.05;;;;;;;;;;5071639;28;20520;-72
2023/04/14 03:52:25;;;;;;;17.95;10.45;;;;;;;;;;5072205;28;20021;-73
2023/04/14 03:54:53;;;;;;;17.70;9.63;;;;;;;;;;5072572;28;20104;-72
2023/04/14 03:57:21;;;;;;;16.20;10.50;;;;;;;;;;5072832;28;20036;-73
2023/04/14 03:59:49;;;;;;;17.20;9.85;;;;;;;;;;5056073;28;20544;-72
2023/04/14 04:02:15;;;;;;;20.55;12.10;;;;;;;;;;5073225;28;20025;-74
2023/04/14 04:04:41;;;;;;;14.00;9.90;;;;;;;;;;5073531;28;20481;-72
2023/04/14 04:07:09;;;;;;;17.35;10.65;;;;;;;;;;5073336;28;20421;-73
2023/04/14 04:09:36;;;;;;;19.50;11.57;;;;;;;;;;5067060;28;20121;-73
2023/04/14 04:12:04;;;;;;;23.52;12.25;;;;;;;;;;5062610;28;20033;-74
2023/04/14 04:14:30;;;;;;;24.10;14.43;;;;;;;;;;5064042;28;20035;-73
2023/04/14 04:16:59;;;;;;;26.73;13.27;;;;;;;;;;5064566;28;20021;-72
2023/04/14 04:19:25;;;;;;;16.67;11.27;;;;;;;;;;5064338;28;20648;-74
2023/04/14 04:21:53;;;;;;;19.75;10.35;;;;;;;;;;5060716;28;20029;-75
2023/04/14 04:24:19;;;;;;;12.57;8.77;;;;;;;;;;5060890;28;20040;-74
2023/04/14 04:26:46;;;;;;;14.07;8.80;;;;;;;;;;5061428;28;20032;-74
2023/04/14 04:29:12;;;;;;;17.63;9.75;;;;;;;;;;5060762;28;20072;-74
2023/04/14 04:31:39;;;;;;;13.98;8.55;;;;;;;;;;5048646;28;20060;-76
2023/04/14 04:34:05;;;;;;;14.63;9.20;;;;;;;;;;5066280;28;20039;-72
2023/04/14 04:36:32;;;;;;;15.02;9.18;;;;;;;;;;5065367;28;20048;-76
2023/04/14 04:38:58;;;;;;;16.95;9.07;;;;;;;;;;5065465;28;20025;-74
2023/04/14 04:41:28;;;;;;;16.90;10.00;;;;;;;;;;5064875;28;20082;-76
2023/04/14 04:43:54;;;;;;;14.98;8.88;;;;;;;;;;5062574;28;20044;-72
2023/04/14 04:46:20;;;;;;;18.67;9.55;;;;;;;;;;5064285;28;20029;-77
2023/04/14 04:48:50;;;;;;;15.18;9.82;;;;;;;;;;5069920;28;20052;-75
2023/04/14 04:51:17;;;;;;;23.73;11.98;;;;;;;;;;5069568;28;20075;-76
2023/04/14 04:53:43;;;;;;;27.20;12.52;;;;;;;;;;5063949;28;20017;-75
2023/04/14 04:56:10;;;;;;;20.50;10.77;;;;;;;;;;5064413;28;20107;-71
2023/04/14 04:58:35;;;;;;;26.05;11.77;;;;;;;;;;5072562;28;20031;-72
2023/04/14 05:01:08;;;;;;;21.40;12.75;;;;;;;;;;5072452;28;20056;-71
2023/04/14 05:03:34;;;;;;;23.25;12.40;;;;;;;;;;5072151;28;20025;-71
2023/04/14 05:06:00;;;;;;;24.77;13.02;;;;;;;;;;5076233;28;20446;-72
2023/04/14 05:08:26;;;;;;;19.35;11.63;;;;;;;;;;5072849;28;20032;-73
2023/04/14 05:10:52;;;;;;;29.75;16.85;;;;;;;;;;5072391;28;20112;-72
2023/04/14 05:13:18;;;;;;;19.40;12.57;;;;;;;;;;5072194;28;20086;-72
2023/04/14 05:15:44;;;;;;;19.77;11.55;;;;;;;;;;5072370;28;20017;-72
2023/04/14 05:18:10;;;;;;;17.17;10.68;;;;;;;;;;5072699;28;20417;-74
2023/04/14 05:20:36;;;;;;;18.70;10.57;;;;;;;;;;5072707;28;20066;-72
2023/04/14 05:23:02;;;;;;;18.33;10.30;;;;;;;;;;5072320;28;20429;-72
2023/04/14 05:25:28;;;;;;;21.98;11.93;;;;;;;;;;5071991;28;20035;-71
2023/04/14 05:27:54;;;;;;;20.42;11.52;;;;;;;;;;5071870;28;20453;-73
2023/04/14 05:30:20;;;;;;;17.58;10.35;;;;;;;;;;5072017;28;20020;-73
2023/04/14 05:32:46;;;;;;;20.15;11.25;;;;;;;;;;5071981;28;20027;-72
2023/04/14 05:35:12;;;;;;;19.92;10.82;;;;;;;;;;5072213;28;20025;-74
2023/04/14 05:37:38;;;;;;;18.25;10.40;;;;;;;;;;5071770;28;20016;-74
2023/04/14 05:40:05;;;;;;;13.73;9.85;;;;;;;;;;5071778;28;20024;-76
2023/04/14 05:42:31;;;;;;;17.17;9.95;;;;;;;;;;5071810;28;20096;-74
2023/04/14 05:44:57;;;;;;;15.50;9.73;;;;;;;;;;5071735;28;20048;-74
2023/04/14 05:47:23;;;;;;;20.40;12.88;;;;;;;;;;5071636;28;20505;-73
2023/04/14 05:49:49;;;;;;;30.73;15.48;;;;;;;;;;5071334;28;20028;-75
2023/04/14 05:52:15;;;;;;;22.90;14.10;;;;;;;;;;5071161;28;20083;-76
2023/04/14 05:54:41;;;;;;;17.40;11.48;;;;;;;;;;5071932;28;20541;-76
2023/04/14 05:57:07;;;;;;;15.35;9.60;;;;;;;;;;5072492;28;20224;-76
2023/04/14 05:59:33;;;;;;;19.42;9.60;;;;;;;;;;5071741;28;20024;-74
2023/04/14 06:02:04;;;;;;;17.42;8.98;;;;;;;;;;5059501;28;20035;-73
2023/04/14 06:04:30;;;;;;;24.77;10.75;;;;;;;;;;5060025;28;20491;-72
2023/04/14 06:06:57;;;;;;;19.30;9.93;;;;;;;;;;5064992;28;20033;-72
2023/04/14 06:09:23;;;;;;;27.73;15.02;;;;;;;;;;5063050;28;20111;-73
2023/04/14 06:11:49;;;;;;;28.30;13.25;;;;;;;;;;5056306;28;20108;-73
2023/04/14 06:14:15;;;;;;;17.55;10.05;;;;;;;;;;5065618;28;20103;-72
2023/04/14 06:16:41;;;;;;;18.35;9.50;;;;;;;;;;5073650;28;20430;-73
2023/04/14 06:19:07;;;;;;;17.00;10.25;;;;;;;;;;5075108;28;20059;-72
2023/04/14 06:21:33;;;;;;;15.35;9.48;;;;;;;;;;5075302;28;20059;-73
2023/04/14 06:24:00;;;;;;;13.27;9.20;;;;;;;;;;5075461;28;20123;-73
2023/04/14 06:26:26;;;;;;;48.25;11.25;;;;;;;;;;5075214;28;20029;-72
2023/04/14 06:28:52;;;;;;;15.80;9.35;;;;;;;;;;5075060;28;20025;-76
2023/04/14 06:31:18;;;;;;;18.33;10.48;;;;;;;;;;5074939;28;20017;-73
2023/04/14 06:33:44;;;;;;;14.13;9.35;;;;;;;;;;5075099;28;20024;-73
2023/04/14 06:36:10;;;;;;;15.52;9.55;;;;;;;;;;5074970;28;20494;-72
2023/04/14 06:38:36;;;;;;;16.92;9.48;;;;;;;;;;5074807;28;20025;-73
2023/04/14 06:41:02;;;;;;;15.27;9.30;;;;;;;;;;5074866;28;20028;-72
2023/04/14 06:43:28;;;;;;;15.52;9.35;;;;;;;;;;5074679;28;20039;-75
2023/04/14 06:45:54;;;;;;;18.85;9.40;;;;;;;;;;5074836;28;20032;-73
2023/04/14 06:48:20;;;;;;;14.60;9.38;;;;;;;;;;5075224;28;20078;-73
2023/04/14 06:50:53;;;;;;;15.07;9.65;;;;;;;;;;5074857;28;20481;-74
2023/04/14 06:53:19;;;;;;;17.70;10.15;;;;;;;;;;5074212;28;20013;-71
2023/04/14 06:55:45;;;;;;;16.75;9.85;;;;;;;;;;5074710;28;20100;-72
2023/04/14 06:58:11;;;;;;;18.48;9.60;;;;;;;;;;5074262;28;20115;-73
2023/04/14 07:00:37;;;;;;;18.83;9.90;;;;;;;;;;5074615;28;20074;-73
2023/04/14 07:03:03;;;;;;;14.57;8.70;;;;;;;;;;5073841;28;20058;-73
2023/04/14 07:05:29;;;;;;;18.52;9.98;;;;;;;;;;5074113;28;20080;-72
2023/04/14 07:07:55;;;;;;;14.00;8.43;;;;;;;;;;5074529;28;20398;-75
2023/04/14 07:10:21;;;;;;;17.05;8.68;;;;;;;;;;5074071;28;20478;-73
2023/04/14 07:12:47;;;;;;;14.52;8.90;;;;;;;;;;5073988;28;20044;-76
2023/04/14 07:15:14;;;;;;;17.48;8.27;;;;;;;;;;5074751;28;20096;-73
2023/04/14 07:17:40;;;;;;;15.90;7.90;;;;;;;;;;5075304;28;20016;-72
2023/04/14 07:20:07;;;;;;;16.38;7.75;;;;;;;;;;5074926;28;20073;-74
2023/04/14 07:22:33;;;;;;;16.92;7.60;;;;;;;;;;5074179;28;20028;-74
2023/04/14 07:24:59;;;;;;;19.05;9.48;;;;;;;;;;5074872;28;20031;-74
2023/04/14 07:27:27;;;;;;;17.98;9.77;;;;;;;;;;5074643;28;20486;-74
2023/04/14 07:29:53;;;;;;;19.48;9.55;;;;;;;;;;5074989;28;20085;-75
2023/04/14 07:32:20;;;;;;;18.38;8.90;;;;;;;;;;5074725;28;20119;-74
2023/04/14 07:34:46;;;;;;;20.30;8.13;;;;;;;;;;5074990;28;20020;-74
2023/04/14 07:37:12;;;;;;;17.48;9.23;;;;;;;;;;5080586;28;20027;-76
2023/04/14 07:39:39;;;;;;;16.45;9.05;;;;;;;;;;5067701;28;20099;-73
2023/04/14 07:42:05;;;;;;;15.18;9.05;;;;;;;;;;5068957;28;20025;-73
2023/04/14 07:44:32;;;;;;;17.05;8.30;;;;;;;;;;5061856;28;20040;-73
2023/04/14 07:46:58;;;;;;;17.70;8.93;;;;;;;;;;5054013;28;20021;-72
2023/04/14 07:49:24;;;;;;;17.50;9.50;;;;;;;;;;5055218;28;20037;-73
2023/04/14 07:51:50;;;;;;;16.85;8.77;;;;;;;;;;5057256;28;20459;-74
2023/04/14 07:54:16;;;;;;;18.20;8.25;;;;;;;;;;5059163;28;20025;-73
2023/04/14 07:56:42;;;;;;;24.15;8.52;;;;;;;;;;5058003;28;20052;-72
2023/04/14 07:59:08;;;;;;;22.08;9.05;;;;;;;;;;5053330;28;20037;-73
2023/04/14 08:01:34;;;;;;;17.92;8.48;;;;;;;;;;5053282;28;20036;-73
2023/04/14 08:04:00;;;;;;;19.27;8.27;;;;;;;;;;5053338;28;20037;-72
2023/04/14 08:06:27;;;;;;;14.73;7.22;;;;;;;;;;5052905;28;20497;-72
2023/04/14 08:08:53;;;;;;;14.07;8.07;;;;;;;;;;5052970;28;20517;-74
2023/04/14 08:11:19;;;;;;;40.97;21.92;;;;;;;;;;5052844;28;20060;-73
2023/04/14 08:13:45;;;;;;;18.63;7.72;;;;;;;;;;5052652;28;20075;-71
2023/04/14 08:16:11;;;;;;;20.30;6.78;;;;;;;;;;5052858;28;20064;-73
2023/04/14 08:18:39;;;;;;;13.77;6.00;;;;;;;;;;5052720;28;20103;-72
2023/04/14 08:21:05;;;;;;;15.02;5.50;;;;;;;;;;5053190;28;20383;-73
2023/04/14 08:23:31;;;;;;;20.10;5.47;;;;;;;;;;5052952;28;20029;-72
2023/04/14 08:25:57;;;;;;;17.20;5.30;;;;;;;;;;5052045;28;20083;-74
2023/04/14 08:28:23;;;;;;;16.92;4.85;;;;;;;;;;5053035;28;20025;-73
2023/04/14 08:30:49;;;;;;;12.27;3.85;;;;;;;;;;5052230;28;20036;-72
2023/04/14 08:33:16;;;;;;;14.35;2.85;;;;;;;;;;5052321;28;20096;-73
2023/04/14 08:35:42;;;;;;;11.93;2.92;;;;;;;;;;5051923;28;20466;-71
2023/04/14 08:38:08;;;;;;;16.52;2.60;;;;;;;;;;5052160;28;20025;-71
2023/04/14 08:40:38;;;;;;;12.50;2.83;;;;;;;;;;5052610;28;20033;-72
2023/04/14 08:43:04;;;;;;;13.20;2.92;;;;;;;;;;5064113;28;20021;-70
2023/04/14 08:45:34;;;;;;;17.23;3.03;;;;;;;;;;5072392;28;20048;-72
2023/04/14 08:48:01;;;;;;;13.48;3.10;;;;;;;;;;5054083;28;20021;-74
2023/04/14 08:50:31;;;;;;;13.43;3.42;;;;;;;;;;5052151;28;20021;-74
2023/04/14 08:52:59;;;;;;;16.13;3.17;;;;;;;;;;5052045;28;20036;-73
2023/04/14 08:55:26;;;;;;;12.00;3.08;;;;;;;;;;5052131;28;20021;-75
2023/04/14 08:57:52;;;;;;;12.23;3.38;;;;;;;;;;5051825;28;20478;-72
2023/04/14 09:00:18;;;;;;;18.27;2.97;;;;;;;;;;5052016;28;20023;-73
2023/04/14 09:02:45;;;;;;;13.43;3.08;;;;;;;;;;5051811;28;20099;-72
2023/04/14 09:05:12;;;;;;;13.55;3.75;;;;;;;;;;5052323;28;20039;-73
2023/04/14 09:07:38;;;;;;;14.15;3.00;;;;;;;;;;5052339;28;20082;-75
2023/04/14 09:10:05;;;;;;;16.33;2.95;;;;;;;;;;5052567;28;20071;-74
2023/04/14 09:12:31;;;;;;;13.80;2.72;;;;;;;;;;5052612;28;20112;-74
2023/04/14 09:14:58;;;;;;;12.77;3.20;;;;;;;;;;5055037;28;20032;-72
2023/04/14 09:17:26;;;;;;;15.65;3.00;;;;;;;;;;5055246;28;20423;-74
2023/04/14 09:19:52;;;;;;;9.85;2.72;;;;;;;;;;5053342;28;20024;-74
2023/04/14 09:22:18;;;;;;;13.20;2.55;;;;;;;;;;5051596;28;20083;-75
2023/04/14 09:24:44;;;;;;;11.52;2.70;;;;;;;;;;5052062;28;20025;-74
2023/04/14 09:27:10;;;;;;;14.95;3.03;;;;;;;;;;5051812;28;20033;-73
2023/04/14 09:29:36;;;;;;;11.43;2.50;;;;;;;;;;5051840;28;20044;-73
2023/04/14 09:32:04;;;;;;;11.75;2.17;;;;;;;;;;5051471;28;20021;-73
2023/04/14 09:34:31;;;;;;;12.25;2.50;;;;;;;;;;5051789;28;20023;-73
2023/04/14 09:37:01;;;;;;;19.98;2.30;;;;;;;;;;5051715;28;20025;-75
2023/04/14 09:39:27;;;;;;;9.55;2.30;;;;;;;;;;5051693;28;20360;-72
2023/04/14 09:41:53;;;;;;;12.85;2.38;;;;;;;;;;5051427;28;20544;-72
2023/04/14 09:44:20;;;;;;;13.23;2.45;;;;;;;;;;5051724;28;20368;-73
2023/04/14 09:47:04;;;;;;;10.68;2.22;;;;;;;;;;5051365;28;20029;-75
2023/04/14 09:49:30;;;;;;;13.52;2.80;;;;;;;;;;5051548;28;20513;-73
2023/04/14 09:52:02;;;;;;;15.38;2.80;;;;;;;;;;5051144;28;20413;-72
2023/04/14 09:54:30;;;;;;;12.40;3.40;;;;;;;;;;5051600;28;20017;-72
2023/04/14 09:56:56;;;;;;;16.20;3.80;;;;;;;;;;5051329;28;20416;-74
2023/04/14 09:59:32;;;;;;;14.32;2.90;;;;;;;;;;5051318;28;20021;-73
2023/04/14 10:02:00;;;;;;;16.15;3.10;;;;;;;;;;5052345;28;20410;-72
2023/04/14 10:04:27;;;;;;;16.00;2.65;;;;;;;;;;5037136;28;20449;-73
2023/04/14 10:06:56;;;;;;;12.73;2.50;;;;;;;;;;5055620;28;20033;-72
2023/04/14 10:09:22;;;;;;;13.65;2.65;;;;;;;;;;5055737;28;20032;-71
2023/04/14 10:12:07;;;;;;;11.82;2.00;;;;;;;;;;5053722;28;20029;-72
2023/04/14 10:14:33;;;;;;;12.70;2.38;;;;;;;;;;5051584;28;20510;-72
2023/04/14 10:17:01;;;;;;;9.77;2.35;;;;;;;;;;5051603;28;20053;-72
2023/04/14 10:19:28;;;;;;;12.82;2.65;;;;;;;;;;5052986;28;20017;-72
2023/04/14 10:21:56;;;;;;;13.77;2.63;;;;;;;;;;5051128;28;20402;-72
2023/04/14 10:24:23;;;;;;;6.90;1.80;;;;;;;;;;5051475;28;20024;-71
2023/04/14 10:26:49;;;;;;;10.18;2.45;;;;;;;;;;5051339;28;20036;-73
2023/04/14 10:29:16;;;;;;;23.10;2.40;;;;;;;;;;5051132;28;20029;-74
2023/04/14 10:31:45;;;;;;;8.75;2.45;;;;;;;;;;5051232;28;20033;-73
2023/04/14 10:34:12;;;;;;;12.18;2.53;;;;;;;;;;5051455;28;20017;-72
2023/04/14 10:36:38;;;;;;;13.30;2.50;;;;;;;;;;5051232;28;20501;-73
2023/04/14 10:39:05;;;;;;;13.15;2.40;;;;;;;;;;5051612;28;20033;-73
2023/04/14 10:41:40;;;;;;;10.02;2.22;;;;;;;;;;5052484;28;20032;-75
2023/04/14 10:44:21;;;;;;;10.68;2.55;;;;;;;;;;5052862;28;20052;-72
2023/04/14 10:46:47;;;;;;;11.82;2.75;;;;;;;;;;5052529;28;20025;-73
2023/04/14 10:49:13;;;;;;;12.90;2.90;;;;;;;;;;5052420;28;20474;-73
2023/04/14 10:51:39;;;;;;;13.18;2.42;;;;;;;;;;5052031;28;20029;-74
2023/04/14 10:54:15;;;;;;;9.75;2.38;;;;;;;;;;5034760;28;20121;-73
2023/04/14 10:56:41;;;;;;;15.02;2.50;;;;;;;;;;5051291;28;20096;-73
2023/04/14 10:59:09;;;;;;;9.25;2.40;;;;;;;;;;5053840;28;20029;-73
2023/04/14 11:01:36;;;;;;;12.90;1.90;;;;;;;;;;5054565;28;20028;-74
2023/04/14 11:04:18;;;;;;;10.85;2.05;;;;;;;;;;5054243;28;20376;-75
2023/04/14 11:06:47;;;;;;;10.30;2.33;;;;;;;;;;5054504;28;20029;-74
2023/04/14 11:09:26;;;;;;;9.52;2.45;;;;;;;;;;5054739;28;20025;-73
2023/04/14 11:11:52;;;;;;;14.73;2.20;;;;;;;;;;5054212;28;20025;-73
2023/04/14 11:14:25;;;;;;;8.45;1.73;;;;;;;;;;5054452;28;20021;-74
2023/04/14 11:16:51;;;;;;;9.10;1.85;;;;;;;;;;5054491;28;20021;-72
2023/04/14 11:19:17;;;;;;;9.82;2.03;;;;;;;;;;5054376;28;20024;-73
2023/04/14 11:21:52;;;;;;;13.02;2.15;;;;;;;;;;5054298;28;20024;-73
2023/04/14 11:24:18;;;;;;;18.95;2.17;;;;;;;;;;5056243;28;20029;-72
2023/04/14 11:26:45;;;;;;;8.50;2.30;;;;;;;;;;5055206;28;20433;-73
2023/04/14 11:29:11;;;;;;;12.05;2.08;;;;;;;;;;5055329;28;20391;-73
2023/04/14 11:31:37;;;;;;;10.93;1.75;;;;;;;;;;5055151;28;20025;-72
2023/04/14 11:34:05;;;;;;;8.45;1.70;;;;;;;;;;5054708;28;20079;-73
2023/04/14 11:36:35;;;;;;;12.07;1.77;;;;;;;;;;5054743;28;20021;-73
2023/04/14 11:39:02;;;;;;;9.75;1.67;;;;;;;;;;5042636;28;20027;-73
2023/04/14 11:41:29;;;;;;;13.35;2.30;;;;;;;;;;5071008;28;20024;-72
2023/04/14 11:43:55;;;;;;;8.50;1.90;;;;;;;;;;5058584;28;20029;-73
2023/04/14 11:46:21;;;;;;;6.82;1.65;;;;;;;;;;5054339;28;20102;-74
2023/04/14 11:48:47;;;;;;;9.73;2.55;;;;;;;;;;5036030;28;20032;-73
2023/04/14 11:51:13;;;;;;;7.00;1.77;;;;;;;;;;5054099;28;20029;-72
2023/04/14 11:53:42;;;;;;;7.38;1.63;;;;;;;;;;5053386;28;20013;-73
2023/04/14 11:56:08;;;;;;;7.90;1.80;;;;;;;;;;5053418;28;20032;-72
2023/04/14 11:58:34;;;;;;;5.72;1.50;;;;;;;;;;5064728;28;20060;-71
2023/04/14 12:01:00;;;;;;;7.97;1.58;;;;;;;;;;5073538;28;20028;-73
2023/04/14 12:03:27;;;;;;;12.15;2.38;;;;;;;;;;5072951;28;20541;-72
2023/04/14 12:06:00;;;;;;;10.38;2.00;;;;;;;;;;5073341;28;20032;-73
2023/04/14 12:08:26;;;;;;;12.90;1.85;;;;;;;;;;5072650;28;20029;-73
2023/04/14 12:10:52;;;;;;;9.02;1.88;;;;;;;;;;5071682;28;20029;-73
2023/04/14 12:13:18;;;;;;;8.32;2.13;;;;;;;;;;5072421;28;20032;-73
2023/04/14 12:15:45;;;;;;;9.38;2.05;;;;;;;;;;5073382;28;20031;-77
2023/04/14 12:18:12;;;;;;;9.48;2.10;;;;;;;;;;5073898;28;20013;-73
2023/04/14 12:20:47;;;;;;;7.88;2.10;;;;;;;;;;5076032;28;20017;-73
2023/04/14 12:23:14;;;;;;;12.30;2.10;;;;;;;;;;5072861;28;20508;-71
2023/04/14 12:25:40;;;;;;;9.00;2.00;;;;;;;;;;5075498;28;20092;-74
2023/04/14 12:28:07;;;;;;;10.05;2.53;;;;;;;;;;5073046;28;20046;-75
2023/04/14 12:30:34;;;;;;;9.88;2.10;;;;;;;;;;5074089;28;20020;-76
2023/04/14 12:33:06;;;;;;;6.57;1.95;;;;;;;;;;5073811;28;20074;-76
2023/04/14 12:35:35;;;;;;;9.32;2.20;;;;;;;;;;5072921;28;20024;-77
2023/04/14 12:38:01;;;;;;;10.75;2.78;;;;;;;;;;5072772;28;20028;-72
2023/04/14 12:40:37;;;;;;;9.63;2.65;;;;;;;;;;5072975;28;20028;-76
2023/04/14 12:43:04;;;;;;;13.18;4.82;;;;;;;;;;5072484;28;20016;-73
2023/04/14 12:45:42;;;;;;;6.18;2.20;;;;;;;;;;5072913;28;20105;-73
2023/04/14 12:48:09;;;;;;;11.23;3.10;;;;;;;;;;5072691;28;20016;-76
2023/04/14 12:50:35;;;;;;;8.13;2.88;;;;;;;;;;5072702;28;20074;-76
2023/04/14 12:53:02;;;;;;;8.18;2.72;;;;;;;;;;5072160;28;20024;-74
2023/04/14 12:55:31;;;;;;;9.38;2.60;;;;;;;;;;5073523;28;20053;-73
2023/04/14 12:57:58;;;;;;;7.80;3.10;;;;;;;;;;5080513;28;20029;-72
2023/04/14 13:00:28;;;;;;;11.30;3.38;;;;;;;;;;5070241;28;20029;-75
2023/04/14 13:02:54;;;;;;;15.85;3.53;;;;;;;;;;5062543;28;20029;-72
2023/04/14 13:05:20;;;;;;;8.07;3.20;;;;;;;;;;5063437;28;20028;-74
2023/04/14 13:07:46;;;;;;;8.65;3.15;;;;;;;;;;5063362;28;20041;-73
2023/04/14 13:10:12;;;;;;;7.57;3.20;;;;;;;;;;5059793;28;20032;-73
2023/04/14 13:12:38;;;;;;;10.00;2.90;;;;;;;;;;5062566;28;20497;-73
2023/04/14 13:15:05;;;;;;;5.20;2.45;;;;;;;;;;5067674;28;20024;-73
2023/04/14 13:17:31;;;;;;;7.85;2.78;;;;;;;;;;5063679;28;20024;-72
2023/04/14 13:19:57;;;;;;;8.23;2.70;;;;;;;;;;5064297;28;20479;-72
2023/04/14 13:22:23;;;;;;;10.80;2.75;;;;;;;;;;5067269;28;20089;-70
2023/04/14 13:24:49;;;;;;;6.88;2.38;;;;;;;;;;5061600;28;20028;-72
2023/04/14 13:27:16;;;;;;;6.88;2.60;;;;;;;;;;5063081;28;20085;-74
2023/04/14 13:29:42;;;;;;;9.18;3.20;;;;;;;;;;5062619;28;20025;-73
2023/04/14 13:32:09;;;;;;;6.20;2.65;;;;;;;;;;5062097;28;20040;-73
2023/04/14 13:34:35;;;;;;;8.18;2.90;;;;;;;;;;5061504;28;20021;-76
2023/04/14 13:37:01;;;;;;;6.55;2.83;;;;;;;;;;5066229;28;20025;-71
2023/04/14 13:39:27;;;;;;;9.10;3.10;;;;;;;;;;5059960;28;20117;-72
2023/04/14 13:41:53;;;;;;;7.68;2.92;;;;;;;;;;5061698;28;20095;-74
2023/04/14 13:44:19;;;;;;;4.72;2.55;;;;;;;;;;5063169;28;20032;-70
2023/04/14 13:46:47;;;;;;;8.05;3.05;;;;;;;;;;5060566;28;20029;-73
2023/04/14 13:49:13;;;;;;;8.80;3.03;;;;;;;;;;5063255;28;20024;-73
2023/04/14 13:51:39;;;;;;;9.43;3.00;;;;;;;;;;5061763;28;20033;-71
2023/04/14 13:54:05;;;;;;;8.55;3.15;;;;;;;;;;5062827;28;20024;-73
2023/04/14 13:56:32;;;;;;;7.80;3.40;;;;;;;;;;5057014;28;20389;-72
2023/04/14 13:58:58;;;;;;;8.13;2.65;;;;;;;;;;5062622;28;20025;-70
2023/04/14 14:01:23;;;;;;;5.38;2.30;;;;;;;;;;5059739;28;20060;-72
2023/04/14 14:03:50;;;;;;;10.98;2.70;;;;;;;;;;5051277;28;20071;-72
2023/04/14 14:06:17;;;;;;;7.88;2.42;;;;;;;;;;5051926;28;20027;-73
2023/04/14 14:08:44;;;;;;;7.20;2.70;;;;;;;;;;5053774;28;20024;-74
2023/04/14 14:11:10;;;;;;;5.97;2.10;;;;;;;;;;5071815;28;20044;-72
2023/04/14 14:13:37;;;;;;;7.88;2.50;;;;;;;;;;5062469;28;20021;-72
2023/04/14 14:16:05;;;;;;;6.65;2.00;;;;;;;;;;5051598;28;20044;-73
2023/04/14 14:18:32;;;;;;;5.53;2.20;;;;;;;;;;5051099;28;20017;-72
2023/04/14 14:20:58;;;;;;;7.38;2.58;;;;;;;;;;5052019;28;20514;-72
2023/04/14 14:23:25;;;;;;;7.05;2.28;;;;;;;;;;5051385;28;20029;-72
2023/04/14 14:25:51;;;;;;;6.60;2.30;;;;;;;;;;5051958;28;20051;-72
2023/04/14 14:28:17;;;;;;;5.38;2.60;;;;;;;;;;5052059;28;20036;-71
2023/04/14 14:30:43;;;;;;;7.43;2.67;;;;;;;;;;5052927;28;20025;-73